createdAt,value
2017-08-01T00:00:40.983Z,0
2017-08-01T00:01:41.262Z,0
2017-08-01T00:02:41.257Z,0
2017-08-01T00:03:41.228Z,0
2017-08-01T00:04:41.212Z,0
2017-08-01T00:05:40.887Z,0
2017-08-01T00:06:41.386Z,0
2017-08-01T00:07:40.852Z,0
2017-08-01T00:08:41.136Z,0
2017-08-01T00:09:41.127Z,0
2017-08-01T00:10:40.820Z,0
2017-08-01T00:11:41.078Z,0
2017-08-01T00:12:41.058Z,0
2017-08-01T00:13:41.042Z,0
2017-08-01T00:14:41.024Z,0
2017-08-01T00:15:40.693Z,0
2017-08-01T00:16:40.974Z,0
2017-08-01T00:17:40.669Z,0
2017-08-01T00:18:40.933Z,0
2017-08-01T00:19:40.929Z,0
2017-08-01T00:20:40.904Z,0
2017-08-01T00:21:40.581Z,0
2017-08-01T00:22:40.851Z,0
2017-08-01T00:23:40.242Z,0
2017-08-01T00:24:40.521Z,0
2017-08-01T00:25:40.802Z,0
2017-08-01T00:26:40.781Z,0
2017-08-01T00:27:40.758Z,0
2017-08-01T00:28:40.794Z,0
2017-08-01T00:29:41.073Z,0
2017-08-01T00:30:40.705Z,0
2017-08-01T00:31:40.688Z,0
2017-08-01T00:32:40.365Z,0
2017-08-01T00:33:40.648Z,0
2017-08-01T00:34:40.313Z,0
2017-08-01T00:35:40.614Z,0
2017-08-01T00:36:40.278Z,0
2017-08-01T00:37:40.572Z,0
2017-08-01T00:38:40.243Z,0
2017-08-01T00:39:40.587Z,0
2017-08-01T00:40:40.505Z,0
2017-08-01T00:41:40.492Z,0
2017-08-01T00:42:40.469Z,0
2017-08-01T00:43:40.444Z,0
2017-08-01T00:44:40.163Z,0
2017-08-01T00:45:40.409Z,0
2017-08-01T00:46:40.386Z,0
2017-08-01T00:47:40.379Z,0
2017-08-01T00:48:40.351Z,0
2017-08-01T00:49:40.332Z,0
2017-08-01T00:50:40.325Z,0
2017-08-01T00:51:40.290Z,0
2017-08-01T00:52:40.268Z,0
2017-08-01T00:53:40.256Z,0
2017-08-01T00:54:40.038Z,0
2017-08-01T00:55:40.215Z,0
2017-08-01T00:56:39.895Z,0
2017-08-01T00:57:39.874Z,0
2017-08-01T00:58:40.151Z,0
2017-08-01T00:59:39.841Z,0
2017-08-01T01:00:40.169Z,0
2017-08-01T01:01:40.106Z,0
2017-08-01T01:02:39.772Z,0
2017-08-01T01:03:40.064Z,0
2017-08-01T01:04:40.038Z,0
2017-08-01T01:05:40.018Z,0
2017-08-01T01:06:40.009Z,0
2017-08-01T01:07:39.991Z,0
2017-08-01T01:08:39.959Z,0
2017-08-01T01:09:39.988Z,0
2017-08-01T01:10:39.945Z,0
2017-08-01T01:11:39.906Z,0
2017-08-01T01:12:40.144Z,0
2017-08-01T01:13:39.870Z,0
2017-08-01T01:14:39.885Z,0
2017-08-01T01:15:39.821Z,0
2017-08-01T01:16:39.795Z,0
2017-08-01T01:17:39.790Z,0
2017-08-01T01:18:39.775Z,0
2017-08-01T01:19:39.744Z,0
2017-08-01T01:20:39.778Z,0
2017-08-01T01:21:39.707Z,0
2017-08-01T01:22:39.698Z,0
2017-08-01T01:23:39.445Z,0
2017-08-01T01:24:39.650Z,0
2017-08-01T01:25:39.334Z,0
2017-08-01T01:26:39.618Z,0
2017-08-01T01:27:39.595Z,0
2017-08-01T01:28:39.580Z,0
2017-08-01T01:29:39.242Z,0
2017-08-01T01:30:39.542Z,0
2017-08-01T01:31:39.517Z,0
2017-08-01T01:32:39.506Z,0
2017-08-01T01:33:39.223Z,0
2017-08-01T01:34:39.455Z,0
2017-08-01T01:35:39.440Z,0
2017-08-01T01:36:39.425Z,0
2017-08-01T01:37:39.402Z,0
2017-08-01T01:38:39.374Z,0
2017-08-01T01:39:39.357Z,0
2017-08-01T01:40:39.342Z,0
2017-08-01T01:41:38.730Z,0
2017-08-01T01:42:39.359Z,0
2017-08-01T01:43:39.282Z,0
2017-08-01T01:44:39.271Z,0
2017-08-01T01:45:38.942Z,0
2017-08-01T01:46:38.973Z,0
2017-08-01T01:47:39.204Z,0
2017-08-01T01:48:39.237Z,0
2017-08-01T01:49:39.183Z,0
2017-08-01T01:50:39.157Z,0
2017-08-01T01:51:39.127Z,0
2017-08-01T01:52:39.152Z,0
2017-08-01T01:53:38.484Z,0
2017-08-01T01:54:39.069Z,0
2017-08-01T01:55:39.054Z,0
2017-08-01T01:56:39.033Z,0
2017-08-01T01:57:39.016Z,0
2017-08-01T01:58:38.995Z,0
2017-08-01T01:59:38.729Z,0
2017-08-01T02:00:38.958Z,0
2017-08-01T02:01:38.928Z,0
2017-08-01T02:02:38.673Z,0
2017-08-01T02:03:38.901Z,0
2017-08-01T02:04:38.884Z,0
2017-08-01T02:05:38.563Z,0
2017-08-01T02:06:38.853Z,0
2017-08-01T02:07:38.833Z,0
2017-08-01T02:08:38.796Z,0
2017-08-01T02:09:38.781Z,0
2017-08-01T02:10:38.764Z,0
2017-08-01T02:11:38.765Z,0
2017-08-01T02:12:38.717Z,0
2017-08-01T02:13:38.701Z,0
2017-08-01T02:14:38.683Z,0
2017-08-01T02:15:38.664Z,0
2017-08-01T02:16:38.643Z,0
2017-08-01T02:17:38.631Z,0
2017-08-01T02:18:38.605Z,0
2017-08-01T02:19:38.583Z,0
2017-08-01T02:20:38.572Z,0
2017-08-01T02:21:38.549Z,0
2017-08-01T02:22:38.527Z,0
2017-08-01T02:23:38.560Z,0
2017-08-01T02:24:38.216Z,0
2017-08-01T02:25:38.477Z,0
2017-08-01T02:26:38.455Z,0
2017-08-01T02:27:38.433Z,0
2017-08-01T02:28:38.409Z,0
2017-08-01T02:29:38.404Z,0
2017-08-01T02:30:38.385Z,0
2017-08-01T02:31:38.354Z,0
2017-08-01T02:32:38.345Z,0
2017-08-01T02:33:38.314Z,0
2017-08-01T02:34:38.297Z,0
2017-08-01T02:35:38.289Z,0
2017-08-01T02:36:37.958Z,0
2017-08-01T02:37:38.223Z,0
2017-08-01T02:38:38.212Z,0
2017-08-01T02:39:38.206Z,0
2017-08-01T02:40:38.236Z,0
2017-08-01T02:41:38.156Z,0
2017-08-01T02:42:38.148Z,0
2017-08-01T02:43:38.119Z,0
2017-08-01T02:44:38.105Z,0
2017-08-01T02:45:38.129Z,0
2017-08-01T02:46:38.059Z,0
2017-08-01T02:47:38.047Z,0
2017-08-01T02:48:38.031Z,0
2017-08-01T02:49:37.703Z,0
2017-08-01T02:50:37.685Z,0
2017-08-01T02:51:37.979Z,0
2017-08-01T02:52:37.948Z,0
2017-08-01T02:53:37.925Z,0
2017-08-01T02:54:37.914Z,0
2017-08-01T02:55:37.890Z,0
2017-08-01T02:56:37.866Z,0
2017-08-01T02:57:37.559Z,0
2017-08-01T02:58:37.833Z,0
2017-08-01T02:59:37.810Z,0
2017-08-01T03:00:37.793Z,0
2017-08-01T03:01:37.780Z,0
2017-08-01T03:02:37.751Z,0
2017-08-01T03:03:37.736Z,0
2017-08-01T03:04:37.717Z,0
2017-08-01T03:05:37.701Z,0
2017-08-01T03:06:37.667Z,0
2017-08-01T03:07:37.664Z,0
2017-08-01T03:08:37.333Z,0
2017-08-01T03:09:37.311Z,0
2017-08-01T03:10:37.285Z,0
2017-08-01T03:11:37.275Z,0
2017-08-01T03:12:37.248Z,0
2017-08-01T03:13:37.531Z,0
2017-08-01T03:14:37.511Z,0
2017-08-01T03:15:37.491Z,0
2017-08-01T03:16:37.511Z,4
2017-08-01T03:17:37.456Z,4
2017-08-01T03:18:37.443Z,4
2017-08-01T03:19:37.463Z,0
2017-08-01T03:20:37.393Z,4
2017-08-01T03:21:37.066Z,4
2017-08-01T03:22:37.356Z,4
2017-08-01T03:23:37.338Z,8
2017-08-01T03:24:37.004Z,4
2017-08-01T03:25:37.295Z,8
2017-08-01T03:26:37.279Z,8
2017-08-01T03:27:37.258Z,8
2017-08-01T03:28:36.931Z,8
2017-08-01T03:29:36.611Z,12
2017-08-01T03:30:37.243Z,12
2017-08-01T03:31:37.422Z,16
2017-08-01T03:32:37.150Z,20
2017-08-01T03:33:37.151Z,20
2017-08-01T03:34:37.125Z,20
2017-08-01T03:35:37.103Z,20
2017-08-01T03:36:37.082Z,24
2017-08-01T03:37:36.757Z,24
2017-08-01T03:38:37.043Z,32
2017-08-01T03:39:37.011Z,32
2017-08-01T03:40:36.700Z,36
2017-08-01T03:41:36.985Z,40
2017-08-01T03:42:36.956Z,44
2017-08-01T03:43:36.922Z,44
2017-08-01T03:44:36.923Z,48
2017-08-01T03:45:36.892Z,52
2017-08-01T03:46:36.574Z,60
2017-08-01T03:47:36.554Z,64
2017-08-01T03:48:36.832Z,72
2017-08-01T03:49:36.814Z,76
2017-08-01T03:50:36.792Z,84
2017-08-01T03:51:36.577Z,92
2017-08-01T03:52:36.459Z,100
2017-08-01T03:53:36.434Z,108
2017-08-01T03:54:36.718Z,116
2017-08-01T03:55:36.692Z,124
2017-08-01T03:56:36.679Z,136
2017-08-01T03:57:36.696Z,148
2017-08-01T03:58:36.338Z,160
2017-08-01T03:59:36.319Z,176
2017-08-01T04:00:36.594Z,188
2017-08-01T04:01:36.282Z,204
2017-08-01T04:02:36.556Z,216
2017-08-01T04:03:36.247Z,232
2017-08-01T04:04:35.964Z,244
2017-08-01T04:05:36.491Z,268
2017-08-01T04:06:36.476Z,300
2017-08-01T04:07:36.457Z,348
2017-08-01T04:08:36.439Z,400
2017-08-01T04:09:36.415Z,468
2017-08-01T04:10:36.446Z,548
2017-08-01T04:11:36.373Z,640
2017-08-01T04:12:36.060Z,732
2017-08-01T04:13:36.380Z,840
2017-08-01T04:14:36.321Z,936
2017-08-01T04:15:36.350Z,1016
2017-08-01T04:16:36.277Z,1056
2017-08-01T04:17:36.266Z,1048
2017-08-01T04:18:36.286Z,1012
2017-08-01T04:19:36.217Z,964
2017-08-01T04:20:36.227Z,928
2017-08-01T04:21:36.175Z,932
2017-08-01T04:22:36.158Z,980
2017-08-01T04:23:36.136Z,1032
2017-08-01T04:24:36.119Z,1100
2017-08-01T04:25:36.104Z,1172
2017-08-01T04:26:36.085Z,1264
2017-08-01T04:27:35.806Z,1428
2017-08-01T04:28:36.042Z,1756
2017-08-01T04:29:36.021Z,2088
2017-08-01T04:30:36.002Z,2372
2017-08-01T04:31:35.986Z,2700
2017-08-01T04:32:35.955Z,2992
2017-08-01T04:33:35.942Z,3268
2017-08-01T04:34:35.919Z,3524
2017-08-01T04:35:35.897Z,3664
2017-08-01T04:36:36.230Z,3656
2017-08-01T04:37:35.571Z,3536
2017-08-01T04:38:35.839Z,3356
2017-08-01T04:39:35.522Z,3208
2017-08-01T04:40:35.497Z,3284
2017-08-01T04:41:35.776Z,3788
2017-08-01T04:42:35.763Z,4488
2017-08-01T04:43:35.752Z,5136
2017-08-01T04:44:35.470Z,5576
2017-08-01T04:45:35.400Z,5892
2017-08-01T04:46:35.432Z,6040
2017-08-01T04:47:35.713Z,6088
2017-08-01T04:48:35.695Z,6160
2017-08-01T04:49:35.318Z,6592
2017-08-01T04:50:35.602Z,5624
2017-08-01T04:51:35.584Z,4372
2017-08-01T04:52:35.564Z,4076
2017-08-01T04:53:35.536Z,3760
2017-08-01T04:54:35.225Z,3868
2017-08-01T04:55:35.513Z,3520
2017-08-01T04:56:35.186Z,3512
2017-08-01T04:57:35.465Z,3520
2017-08-01T04:58:35.445Z,3584
2017-08-01T04:59:35.432Z,3700
2017-08-01T05:00:35.413Z,3848
2017-08-01T05:01:35.392Z,4064
2017-08-01T05:02:34.771Z,4308
2017-08-01T05:03:35.356Z,4504
2017-08-01T05:04:35.380Z,4768
2017-08-01T05:05:35.316Z,5008
2017-08-01T05:06:35.324Z,5536
2017-08-01T05:07:35.271Z,5996
2017-08-01T05:08:35.264Z,5876
2017-08-01T05:09:35.234Z,5968
2017-08-01T05:10:35.222Z,6304
2017-08-01T05:11:35.204Z,5980
2017-08-01T05:12:35.231Z,6356
2017-08-01T05:13:35.153Z,6948
2017-08-01T05:14:35.404Z,9588
2017-08-01T05:15:34.877Z,12184
2017-08-01T05:16:34.808Z,12076
2017-08-01T05:17:35.073Z,10876
2017-08-01T05:18:35.064Z,8820
2017-08-01T05:19:35.052Z,10940
2017-08-01T05:20:35.023Z,12996
2017-08-01T05:21:35.012Z,13580
2017-08-01T05:22:34.994Z,13324
2017-08-01T05:23:34.977Z,13436
2017-08-01T05:24:34.643Z,13708
2017-08-01T05:25:34.632Z,14752
2017-08-01T05:26:34.614Z,14880
2017-08-01T05:27:34.905Z,14036
2017-08-01T05:28:34.894Z,12832
2017-08-01T05:29:34.606Z,8372
2017-08-01T05:30:34.850Z,7288
2017-08-01T05:31:34.828Z,7608
2017-08-01T05:32:34.502Z,8056
2017-08-01T05:33:34.795Z,8068
2017-08-01T05:34:34.770Z,11624
2017-08-01T05:35:34.457Z,12344
2017-08-01T05:36:34.748Z,11608
2017-08-01T05:37:34.490Z,11880
2017-08-01T05:38:34.400Z,11320
2017-08-01T05:39:34.688Z,8792
2017-08-01T05:40:34.654Z,10108
2017-08-01T05:41:34.659Z,10796
2017-08-01T05:42:34.650Z,7856
2017-08-01T05:43:34.642Z,6996
2017-08-01T05:44:34.604Z,7424
2017-08-01T05:45:34.332Z,8004
2017-08-01T05:46:34.561Z,7756
2017-08-01T05:47:34.548Z,10676
2017-08-01T05:48:34.494Z,10452
2017-08-01T05:49:34.208Z,11524
2017-08-01T05:50:34.496Z,12116
2017-08-01T05:51:34.498Z,10724
2017-08-01T05:52:34.463Z,10092
2017-08-01T05:53:34.150Z,11352
2017-08-01T05:54:34.422Z,12928
2017-08-01T05:55:34.408Z,11820
2017-08-01T05:56:33.791Z,12884
2017-08-01T05:57:34.376Z,12712
2017-08-01T05:58:34.361Z,12112
2017-08-01T05:59:34.341Z,11948
2017-08-01T06:00:34.333Z,13576
2017-08-01T06:01:34.008Z,12732
2017-08-01T06:02:34.298Z,10780
2017-08-01T06:03:34.321Z,10296
2017-08-01T06:04:34.265Z,9376
2017-08-01T06:05:34.250Z,10880
2017-08-01T06:06:34.225Z,11820
2017-08-01T06:07:34.222Z,11632
2017-08-01T06:08:33.892Z,12180
2017-08-01T06:09:34.172Z,12080
2017-08-01T06:10:33.868Z,13564
2017-08-01T06:11:33.843Z,13520
2017-08-01T06:12:34.181Z,10364
2017-08-01T06:13:34.111Z,19392
2017-08-01T06:14:34.113Z,19424
2017-08-01T06:15:34.088Z,19840
2017-08-01T06:16:34.075Z,20544
2017-08-01T06:17:33.814Z,20672
2017-08-01T06:18:33.729Z,20576
2017-08-01T06:19:33.718Z,22240
2017-08-01T06:20:34.008Z,22592
2017-08-01T06:21:33.991Z,23296
2017-08-01T06:22:33.671Z,18720
2017-08-01T06:23:33.971Z,10224
2017-08-01T06:24:33.953Z,22592
2017-08-01T06:25:33.630Z,13800
2017-08-01T06:26:33.620Z,7596
2017-08-01T06:27:33.914Z,11544
2017-08-01T06:28:33.904Z,20480
2017-08-01T06:29:33.876Z,23680
2017-08-01T06:30:33.558Z,19744
2017-08-01T06:31:33.606Z,24672
2017-08-01T06:32:33.844Z,25760
2017-08-01T06:33:33.576Z,27616
2017-08-01T06:34:33.802Z,31008
2017-08-01T06:35:33.802Z,30400
2017-08-01T06:36:33.781Z,17664
2017-08-01T06:37:33.764Z,22912
2017-08-01T06:38:33.758Z,22464
2017-08-01T06:39:33.745Z,16480
2017-08-01T06:40:33.724Z,34048
2017-08-01T06:41:33.724Z,35168
2017-08-01T06:42:33.703Z,35072
2017-08-01T06:43:33.692Z,21344
2017-08-01T06:44:33.680Z,14464
2017-08-01T06:45:33.380Z,14112
2017-08-01T06:46:33.672Z,15512
2017-08-01T06:47:33.649Z,13892
2017-08-01T06:48:33.637Z,14532
2017-08-01T06:49:33.653Z,15904
2017-08-01T06:50:33.618Z,14500
2017-08-01T06:51:33.657Z,13128
2017-08-01T06:52:33.590Z,13088
2017-08-01T06:53:33.830Z,13180
2017-08-01T06:54:33.564Z,13344
2017-08-01T06:55:33.245Z,14180
2017-08-01T06:56:33.549Z,13984
2017-08-01T06:57:33.539Z,14660
2017-08-01T06:58:33.807Z,15228
2017-08-01T06:59:33.298Z,15428
2017-08-01T07:00:33.185Z,17536
2017-08-01T07:01:33.468Z,18944
2017-08-01T07:02:33.151Z,20256
2017-08-01T07:03:33.186Z,22400
2017-08-01T07:04:33.420Z,25184
2017-08-01T07:05:33.415Z,23712
2017-08-01T07:06:33.398Z,26272
2017-08-01T07:07:33.383Z,30304
2017-08-01T07:08:33.371Z,28320
2017-08-01T07:09:33.058Z,27424
2017-08-01T07:10:33.337Z,27584
2017-08-01T07:11:33.330Z,27424
2017-08-01T07:12:33.365Z,28288
2017-08-01T07:13:33.371Z,23808
2017-08-01T07:14:33.306Z,25376
2017-08-01T07:15:33.044Z,26080
2017-08-01T07:16:32.966Z,25824
2017-08-01T07:17:33.263Z,23008
2017-08-01T07:18:33.249Z,22240
2017-08-01T07:19:33.232Z,23360
2017-08-01T07:20:33.284Z,25824
2017-08-01T07:21:33.200Z,29920
2017-08-01T07:22:33.199Z,31040
2017-08-01T07:23:33.228Z,30400
2017-08-01T07:24:33.164Z,29344
2017-08-01T07:25:33.155Z,29600
2017-08-01T07:26:33.164Z,30272
2017-08-01T07:27:33.136Z,35008
2017-08-01T07:28:33.117Z,36768
2017-08-01T07:29:32.864Z,36480
2017-08-01T07:30:33.105Z,33600
2017-08-01T07:31:33.080Z,39552
2017-08-01T07:32:33.068Z,36256
2017-08-01T07:33:33.070Z,34592
2017-08-01T07:34:32.752Z,33216
2017-08-01T07:35:33.043Z,26240
2017-08-01T07:36:33.040Z,26912
2017-08-01T07:37:33.030Z,26240
2017-08-01T07:38:32.717Z,25152
2017-08-01T07:39:33.004Z,28704
2017-08-01T07:40:33.042Z,31328
2017-08-01T07:41:32.969Z,22432
2017-08-01T07:42:32.970Z,32032
2017-08-01T07:43:32.969Z,30656
2017-08-01T07:44:32.662Z,29120
2017-08-01T07:45:32.688Z,20672
2017-08-01T07:46:32.942Z,24000
2017-08-01T07:47:32.924Z,18112
2017-08-01T07:48:32.917Z,17856
2017-08-01T07:49:32.948Z,26464
2017-08-01T07:50:32.880Z,23360
2017-08-01T07:51:32.875Z,16640
2017-08-01T07:52:32.866Z,21248
2017-08-01T07:53:32.545Z,56096
2017-08-01T07:54:32.853Z,48896
2017-08-01T07:55:32.826Z,50176
2017-08-01T07:56:32.837Z,47968
2017-08-01T07:57:32.810Z,40768
2017-08-01T07:58:32.798Z,42400
2017-08-01T07:59:32.790Z,36896
2017-08-01T08:00:32.779Z,30080
2017-08-01T08:01:32.765Z,27264
2017-08-01T08:02:32.752Z,26784
2017-08-01T08:03:32.759Z,24736
2017-08-01T08:04:32.731Z,24896
2017-08-01T08:05:32.417Z,23168
2017-08-01T08:06:32.902Z,20608
2017-08-01T08:07:32.704Z,21824
2017-08-01T08:08:32.797Z,21312
2017-08-01T08:09:32.385Z,23264
2017-08-01T08:10:32.698Z,21504
2017-08-01T08:11:32.673Z,20800
2017-08-01T08:12:32.655Z,20288
2017-08-01T08:13:32.345Z,20288
2017-08-01T08:14:32.631Z,21920
2017-08-01T08:15:32.361Z,19200
2017-08-01T08:16:32.600Z,16768
2017-08-01T08:17:32.604Z,15496
2017-08-01T08:18:32.579Z,14364
2017-08-01T08:19:32.570Z,14000
2017-08-01T08:20:32.556Z,13972
2017-08-01T08:21:32.564Z,14232
2017-08-01T08:22:32.570Z,14844
2017-08-01T08:23:32.784Z,15704
2017-08-01T08:24:32.263Z,16544
2017-08-01T08:25:32.488Z,16928
2017-08-01T08:26:32.470Z,16768
2017-08-01T08:27:32.462Z,16448
2017-08-01T08:28:32.466Z,15980
2017-08-01T08:29:32.439Z,15704
2017-08-01T08:30:32.424Z,15792
2017-08-01T08:31:32.424Z,15968
2017-08-01T08:32:32.393Z,16044
2017-08-01T08:33:32.382Z,16448
2017-08-01T08:34:32.373Z,16960
2017-08-01T08:35:32.345Z,17312
2017-08-01T08:36:32.342Z,17856
2017-08-01T08:37:32.321Z,18688
2017-08-01T08:38:32.312Z,20768
2017-08-01T08:39:32.287Z,22496
2017-08-01T08:40:32.283Z,23872
2017-08-01T08:41:32.279Z,24960
2017-08-01T08:42:32.251Z,26080
2017-08-01T08:43:32.244Z,25792
2017-08-01T08:44:31.929Z,23552
2017-08-01T08:45:32.212Z,21984
2017-08-01T08:46:32.207Z,22048
2017-08-01T08:47:31.881Z,22112
2017-08-01T08:48:32.168Z,21408
2017-08-01T08:49:32.155Z,21120
2017-08-01T08:50:32.148Z,21120
2017-08-01T08:51:32.392Z,21024
2017-08-01T08:52:32.111Z,21152
2017-08-01T08:53:32.097Z,21696
2017-08-01T08:54:32.091Z,20608
2017-08-01T08:55:32.129Z,19072
2017-08-01T08:56:32.078Z,18336
2017-08-01T08:57:31.751Z,18432
2017-08-01T08:58:32.033Z,19744
2017-08-01T08:59:32.022Z,22048
2017-08-01T09:00:32.003Z,23232
2017-08-01T09:01:31.989Z,24384
2017-08-01T09:02:31.977Z,25664
2017-08-01T09:03:31.963Z,24640
2017-08-01T09:04:31.955Z,24096
2017-08-01T09:05:31.627Z,25088
2017-08-01T09:06:31.918Z,25376
2017-08-01T09:07:31.599Z,25248
2017-08-01T09:08:31.910Z,24352
2017-08-01T09:09:31.880Z,23648
2017-08-01T09:10:31.879Z,23648
2017-08-01T09:11:31.556Z,23744
2017-08-01T09:12:31.889Z,23072
2017-08-01T09:13:31.830Z,21472
2017-08-01T09:14:31.866Z,20416
2017-08-01T09:15:31.503Z,18752
2017-08-01T09:16:31.784Z,17792
2017-08-01T09:17:31.533Z,18432
2017-08-01T09:18:31.750Z,16992
2017-08-01T09:19:31.745Z,13712
2017-08-01T09:20:31.778Z,13524
2017-08-01T09:21:31.468Z,15204
2017-08-01T09:22:31.651Z,15840
2017-08-01T09:23:31.689Z,15400
2017-08-01T09:24:31.674Z,14224
2017-08-01T09:25:31.661Z,14260
2017-08-01T09:26:31.666Z,14812
2017-08-01T09:27:31.632Z,14764
2017-08-01T09:28:31.314Z,14648
2017-08-01T09:29:31.316Z,14816
2017-08-01T09:30:31.582Z,15224
2017-08-01T09:31:31.571Z,15748
2017-08-01T09:32:31.311Z,16352
2017-08-01T09:33:31.241Z,16768
2017-08-01T09:34:31.545Z,17056
2017-08-01T09:35:31.218Z,17120
2017-08-01T09:36:31.307Z,16928
2017-08-01T09:37:31.539Z,16384
2017-08-01T09:38:31.475Z,15496
2017-08-01T09:39:31.466Z,14656
2017-08-01T09:40:31.448Z,13916
2017-08-01T09:41:31.430Z,13152
2017-08-01T09:42:31.408Z,12332
2017-08-01T09:43:30.795Z,11608
2017-08-01T09:44:31.388Z,11056
2017-08-01T09:45:31.369Z,10684
2017-08-01T09:46:31.356Z,10344
2017-08-01T09:47:31.410Z,10096
2017-08-01T09:48:31.323Z,9956
2017-08-01T09:49:31.306Z,9948
2017-08-01T09:50:31.000Z,10020
2017-08-01T09:51:31.283Z,10120
2017-08-01T09:52:31.282Z,10232
2017-08-01T09:53:30.939Z,10376
2017-08-01T09:54:31.239Z,10448
2017-08-01T09:55:31.212Z,10432
2017-08-01T09:56:31.197Z,10356
2017-08-01T09:57:31.209Z,10296
2017-08-01T09:58:31.174Z,10332
2017-08-01T09:59:31.155Z,10672
2017-08-01T10:00:31.136Z,11480
2017-08-01T10:01:30.861Z,12792
2017-08-01T10:02:31.100Z,14752
2017-08-01T10:03:31.139Z,17696
2017-08-01T10:04:30.814Z,20320
2017-08-01T10:05:31.052Z,19392
2017-08-01T10:06:31.049Z,19008
2017-08-01T10:07:31.022Z,18880
2017-08-01T10:08:31.016Z,19104
2017-08-01T10:09:30.990Z,18560
2017-08-01T10:10:30.977Z,17760
2017-08-01T10:11:30.971Z,15992
2017-08-01T10:12:30.952Z,13432
2017-08-01T10:13:30.948Z,10820
2017-08-01T10:14:30.621Z,8940
2017-08-01T10:15:30.916Z,7908
2017-08-01T10:16:30.283Z,7432
2017-08-01T10:17:30.928Z,7360
2017-08-01T10:18:30.850Z,7640
2017-08-01T10:19:31.065Z,8796
2017-08-01T10:20:30.873Z,9852
2017-08-01T10:21:30.808Z,10384
2017-08-01T10:22:30.792Z,11096
2017-08-01T10:23:30.800Z,10864
2017-08-01T10:24:30.765Z,10332
2017-08-01T10:25:30.754Z,11004
2017-08-01T10:26:30.719Z,13216
2017-08-01T10:27:30.760Z,14684
2017-08-01T10:28:30.399Z,14860
2017-08-01T10:29:30.676Z,14908
2017-08-01T10:30:30.672Z,15508
2017-08-01T10:31:30.653Z,15224
2017-08-01T10:32:30.635Z,13748
2017-08-01T10:33:30.009Z,15588
2017-08-01T10:34:30.613Z,22528
2017-08-01T10:35:30.583Z,24512
2017-08-01T10:36:30.570Z,23648
2017-08-01T10:37:30.610Z,26112
2017-08-01T10:38:30.236Z,33920
2017-08-01T10:39:30.522Z,60576
2017-08-01T10:40:30.272Z,61664
2017-08-01T10:41:30.192Z,76384
2017-08-01T10:42:30.479Z,55680
2017-08-01T10:43:30.492Z,53856
2017-08-01T10:44:30.411Z,56576
2017-08-01T10:45:30.439Z,54432
2017-08-01T10:46:30.446Z,66720
2017-08-01T10:47:30.427Z,49088
2017-08-01T10:48:30.406Z,54560
2017-08-01T10:49:30.395Z,40608
2017-08-01T10:50:30.443Z,44416
2017-08-01T10:51:30.354Z,63392
2017-08-01T10:52:30.357Z,82912
2017-08-01T10:53:30.348Z,51232
2017-08-01T10:54:30.342Z,36064
2017-08-01T10:55:30.032Z,28992
2017-08-01T10:56:30.071Z,27456
2017-08-01T10:57:30.305Z,25280
2017-08-01T10:58:29.986Z,23264
2017-08-01T10:59:30.284Z,22560
2017-08-01T11:00:30.275Z,20064
2017-08-01T11:01:29.961Z,20192
2017-08-01T11:02:30.261Z,21920
2017-08-01T11:03:30.233Z,22976
2017-08-01T11:04:30.229Z,21888
2017-08-01T11:05:30.213Z,19264
2017-08-01T11:06:30.208Z,18176
2017-08-01T11:07:29.903Z,21984
2017-08-01T11:08:30.180Z,23680
2017-08-01T11:09:30.416Z,27360
2017-08-01T11:10:30.171Z,62208
2017-08-01T11:11:30.196Z,26080
2017-08-01T11:12:29.907Z,69728
2017-08-01T11:13:30.122Z,35456
2017-08-01T11:14:30.162Z,26848
2017-08-01T11:15:29.810Z,28512
2017-08-01T11:16:30.081Z,24736
2017-08-01T11:17:30.090Z,23872
2017-08-01T11:18:29.768Z,22880
2017-08-01T11:19:30.056Z,23392
2017-08-01T11:20:30.041Z,23776
2017-08-01T11:21:30.043Z,23584
2017-08-01T11:22:30.014Z,23328
2017-08-01T11:23:30.011Z,22080
2017-08-01T11:24:29.996Z,21120
2017-08-01T11:25:29.692Z,20992
2017-08-01T11:26:30.028Z,20608
2017-08-01T11:27:29.960Z,21568
2017-08-01T11:28:29.645Z,22176
2017-08-01T11:29:29.943Z,21760
2017-08-01T11:30:29.979Z,21440
2017-08-01T11:31:29.913Z,19360
2017-08-01T11:32:29.888Z,19264
2017-08-01T11:33:29.885Z,20064
2017-08-01T11:34:29.866Z,18752
2017-08-01T11:35:29.863Z,18048
2017-08-01T11:36:29.843Z,18368
2017-08-01T11:37:29.840Z,20768
2017-08-01T11:38:29.816Z,23808
2017-08-01T11:39:29.804Z,22656
2017-08-01T11:40:29.793Z,21728
2017-08-01T11:41:29.775Z,19424
2017-08-01T11:42:29.782Z,16280
2017-08-01T11:43:29.747Z,14012
2017-08-01T11:44:29.741Z,12316
2017-08-01T11:45:29.730Z,10940
2017-08-01T11:46:29.719Z,10632
2017-08-01T11:47:29.779Z,10688
2017-08-01T11:48:29.692Z,10624
2017-08-01T11:49:29.684Z,9604
2017-08-01T11:50:29.655Z,8580
2017-08-01T11:51:29.654Z,7888
2017-08-01T11:52:29.725Z,7716
2017-08-01T11:53:29.671Z,8288
2017-08-01T11:54:29.611Z,9428
2017-08-01T11:55:29.597Z,9764
2017-08-01T11:56:29.581Z,9664
2017-08-01T11:57:29.036Z,8988
2017-08-01T11:58:29.553Z,8376
2017-08-01T11:59:29.533Z,7980
2017-08-01T12:00:29.520Z,8096
2017-08-01T12:01:29.513Z,8424
2017-08-01T12:02:29.496Z,8668
2017-08-01T12:03:29.492Z,8716
2017-08-01T12:04:29.462Z,8876
2017-08-01T12:05:29.452Z,8676
2017-08-01T12:06:29.444Z,8640
2017-08-01T12:07:29.417Z,8748
2017-08-01T12:08:29.413Z,9100
2017-08-01T12:09:29.393Z,10172
2017-08-01T12:10:29.390Z,11368
2017-08-01T12:11:29.364Z,12580
2017-08-01T12:12:29.357Z,12468
2017-08-01T12:13:29.336Z,12088
2017-08-01T12:14:29.318Z,12096
2017-08-01T12:15:29.302Z,11796
2017-08-01T12:16:28.687Z,11880
2017-08-01T12:17:28.964Z,12160
2017-08-01T12:18:29.261Z,11916
2017-08-01T12:19:29.235Z,12192
2017-08-01T12:20:29.270Z,13032
2017-08-01T12:21:29.194Z,13016
2017-08-01T12:22:29.199Z,13388
2017-08-01T12:23:29.167Z,14188
2017-08-01T12:24:29.157Z,14208
2017-08-01T12:25:29.209Z,14808
2017-08-01T12:26:28.871Z,15660
2017-08-01T12:27:28.809Z,16576
2017-08-01T12:28:29.090Z,18016
2017-08-01T12:29:29.079Z,19328
2017-08-01T12:30:29.149Z,20576
2017-08-01T12:31:29.045Z,20384
2017-08-01T12:32:29.023Z,20032
2017-08-01T12:33:29.012Z,20416
2017-08-01T12:34:28.701Z,21152
2017-08-01T12:35:29.057Z,22560
2017-08-01T12:36:29.033Z,21120
2017-08-01T12:37:29.050Z,19136
2017-08-01T12:38:28.992Z,17792
2017-08-01T12:39:28.917Z,17088
2017-08-01T12:40:28.912Z,16448
2017-08-01T12:41:28.904Z,17216
2017-08-01T12:42:28.873Z,16960
2017-08-01T12:43:28.920Z,16220
2017-08-01T12:44:28.843Z,15580
2017-08-01T12:45:28.584Z,14924
2017-08-01T12:46:28.818Z,13736
2017-08-01T12:47:28.794Z,11536
2017-08-01T12:48:28.784Z,9648
2017-08-01T12:49:28.815Z,8624
2017-08-01T12:50:28.797Z,8196
2017-08-01T12:51:28.741Z,7756
2017-08-01T12:52:28.721Z,7324
2017-08-01T12:53:28.408Z,6740
2017-08-01T12:54:28.684Z,6292
2017-08-01T12:55:28.377Z,6104
2017-08-01T12:56:28.361Z,5816
2017-08-01T12:57:28.339Z,5696
2017-08-01T12:58:28.633Z,5660
2017-08-01T12:59:28.613Z,5380
2017-08-01T13:00:28.600Z,5016
2017-08-01T13:01:28.581Z,4736
2017-08-01T13:02:28.565Z,4632
2017-08-01T13:03:28.550Z,4592
2017-08-01T13:04:28.543Z,4676
2017-08-01T13:05:28.521Z,5168
2017-08-01T13:06:28.208Z,5908
2017-08-01T13:07:28.482Z,6316
2017-08-01T13:08:28.531Z,6508
2017-08-01T13:09:28.451Z,6648
2017-08-01T13:10:28.074Z,7024
2017-08-01T13:11:28.436Z,7396
2017-08-01T13:12:28.395Z,7604
2017-08-01T13:13:28.386Z,7932
2017-08-01T13:14:28.373Z,8328
2017-08-01T13:15:28.403Z,8548
2017-08-01T13:16:28.340Z,8488
2017-08-01T13:17:28.325Z,8240
2017-08-01T13:18:28.315Z,8100
2017-08-01T13:19:28.292Z,7772
2017-08-01T13:20:28.285Z,7516
2017-08-01T13:21:28.269Z,7172
2017-08-01T13:22:27.990Z,7256
2017-08-01T13:23:28.219Z,7688
2017-08-01T13:24:28.204Z,8204
2017-08-01T13:25:28.201Z,8420
2017-08-01T13:26:27.875Z,8544
2017-08-01T13:27:28.159Z,8716
2017-08-01T13:28:28.194Z,8448